Mead, OK

8:53 AM CDT on September 29, 2016 (GMT -0500)
Eaker

Weather History for KDUA - April, 2014

Change the Weather History Date:

Friday, April 4, 2014

  Actual Average (KADM) Record (KADM)
Temperature  
Mean Temperature 54 °F -  
Max Temperature 66 °F 67 °F 85 °F (2016)
Min Temperature 42 °F 49 °F 35 °F (2011)
Degree Days  
Heating Degree Days 11    
Growing Degree Days 4 (Base 50)    
Moisture  
Dew Point 34 °F    
Average Humidity 51    
Maximum Humidity 76    
Minimum Humidity 26    
Precipitation  
Precipitation 0.00 in - - ()
Sea Level Pressure  
Sea Level Pressure 30.10 in    
Wind  
Wind Speed 13 mph (North)    
Max Wind Speed 23 mph    
Max Gust Speed 31 mph    
Visibility 10 miles    
Events      
Averages and records for this station are not official NWS values.
T = Trace of Precipitation, MM = Missing Value Source: NWS Daily Summary

Daily Weather History Graph

Daily Weather History Graph

Search for Another Location

Airport or City:

Trip Planner

Search our weather history database for the weather conditions in past years. The results will help you decide how hot, cold, wet, or windy it might be!

Date:

Astronomy

Apr. 04, 2014 Rise Set
Actual Time 7:08 AM CDT 7:48 PM CDT
Civil Twilight 6:43 AM CDT 8:13 PM CDT
Nautical Twilight 6:13 AM CDT 8:43 PM CDT
Astronomical Twilight 5:43 AM CDT 9:14 PM CDT
Moon 10:36 AM CDT (4/4) No Moon Set
Length of Visible Light 13h 30m
Length of Day
12h 39m
Waxing Crescent, 25% of the Moon is Illuminated
Apr 4
Waxing Crescent
Apr 7
First Quarter
Apr 15
Full
Apr 22
Last Quarter
Apr 29
New

Hourly Weather History & Observations

Time (CDT) Temp. Windchill Dew Point Humidity Pressure Visibility Wind Dir Wind Speed Gust Speed Precip Events Conditions
12:15 AM 59.0 °F - 41.0 °F 51% 29.92 in 10.0 mi NNW 15.0 mph 25.3 mph N/A   Clear
12:35 AM 57.2 °F - 41.0 °F 55% 29.93 in 10.0 mi NNW 20.7 mph 26.5 mph N/A   Clear
12:55 AM 55.4 °F - 41.0 °F 58% 29.95 in 10.0 mi NNW 19.6 mph - N/A   Clear
1:15 AM 55.4 °F - 39.2 °F 54% 29.95 in 10.0 mi NNW 19.6 mph 26.5 mph N/A   Clear
1:35 AM 53.6 °F - 39.2 °F 58% 29.96 in 10.0 mi NNW 16.1 mph 23.0 mph N/A   Clear
1:55 AM 51.8 °F - 41.0 °F 67% 29.97 in 10.0 mi NNW 23.0 mph 31.1 mph N/A   Clear
2:15 AM 51.8 °F - 37.4 °F 58% 29.98 in 10.0 mi NNW 18.4 mph 25.3 mph N/A   Clear
2:35 AM 50.0 °F - 37.4 °F 62% 30.00 in 10.0 mi NNW 12.7 mph - N/A   Clear
2:55 AM 50.0 °F - 37.4 °F 62% 30.00 in 10.0 mi NNW 11.5 mph - N/A   Clear
3:15 AM 50.0 °F - 37.4 °F 62% 30.01 in 10.0 mi NNW 12.7 mph 17.3 mph N/A   Clear
3:35 AM 48.2 °F - 37.4 °F 66% 30.02 in 10.0 mi NNW 12.7 mph 17.3 mph N/A   Clear
3:55 AM 46.4 °F 40.7 °F 37.4 °F 71% 30.02 in 10.0 mi NNW 12.7 mph 18.4 mph N/A   Clear
4:15 AM 46.4 °F 40.7 °F 37.4 °F 71% 30.03 in 10.0 mi NNW 12.7 mph - N/A   Clear
4:35 AM 46.4 °F 40.4 °F 35.6 °F 66% 30.04 in 10.0 mi NNW 13.8 mph 20.7 mph N/A   Clear
4:55 AM 44.6 °F 38.1 °F 35.6 °F 71% 30.05 in 10.0 mi NNW 13.8 mph - N/A   Clear
5:15 AM 44.6 °F 39.7 °F 35.6 °F 71% 30.06 in 10.0 mi NNW 9.2 mph - N/A   Clear
5:35 AM 44.6 °F 39.7 °F 35.6 °F 71% 30.07 in 10.0 mi NNW 9.2 mph 16.1 mph N/A   Clear
5:55 AM 42.8 °F 38.6 °F 35.6 °F 76% 30.09 in 10.0 mi NW 6.9 mph - N/A   Clear
6:15 AM 42.8 °F 37.0 °F 35.6 °F 76% 30.09 in 10.0 mi NNW 10.4 mph - N/A   Clear
6:35 AM 42.8 °F 37.5 °F 35.6 °F 76% 30.09 in 10.0 mi NNW 9.2 mph - N/A   Clear
6:55 AM 42.8 °F 36.2 °F 35.6 °F 76% 30.10 in 10.0 mi NNW 12.7 mph 19.6 mph N/A   Clear
7:15 AM 42.8 °F 37.0 °F 35.6 °F 76% 30.12 in 10.0 mi NNW 10.4 mph - N/A   Clear
7:35 AM 42.8 °F 38.0 °F 35.6 °F 76% 30.13 in 10.0 mi NNW 8.1 mph - N/A   Clear
7:55 AM 42.8 °F 37.0 °F 35.6 °F 76% 30.13 in 10.0 mi NNW 10.4 mph - N/A   Clear
8:15 AM 42.8 °F 36.2 °F 35.6 °F 76% 30.13 in 10.0 mi NNW 12.7 mph - N/A   Clear
8:35 AM 44.6 °F 38.4 °F 35.6 °F 71% 30.13 in 10.0 mi NNW 12.7 mph 20.7 mph N/A   Clear
8:55 AM 46.4 °F 40.4 °F 35.6 °F 66% 30.14 in 10.0 mi NNW 13.8 mph - N/A   Clear
9:15 AM 46.4 °F 39.2 °F 35.6 °F 66% 30.14 in 10.0 mi North 18.4 mph 24.2 mph N/A   Clear
9:35 AM 48.2 °F - 37.4 °F 66% 30.15 in 10.0 mi WNW 17.3 mph 23.0 mph N/A   Clear
9:55 AM 50.0 °F - 37.4 °F 62% 30.15 in 10.0 mi NNW 16.1 mph - N/A   Clear
10:15 AM 50.0 °F - 37.4 °F 62% 30.17 in 10.0 mi NNW 13.8 mph - N/A   Clear
10:35 AM 51.8 °F - 37.4 °F 58% 30.17 in 10.0 mi North 11.5 mph - N/A   Clear
10:55 AM 53.6 °F - 37.4 °F 54% 30.18 in 10.0 mi NNW 11.5 mph - N/A   Clear
11:15 AM 53.6 °F - 37.4 °F 54% 30.18 in 10.0 mi NNW 12.7 mph - N/A   Clear
11:35 AM 55.4 °F - 35.6 °F 47% 30.18 in 10.0 mi NNE 11.5 mph - N/A   Clear
11:55 AM 55.4 °F - 35.6 °F 47% 30.18 in 10.0 mi NNE 8.1 mph 23.0 mph N/A   Clear
12:15 PM 55.4 °F - 35.6 °F 47% 30.18 in 10.0 mi North 8.1 mph 18.4 mph N/A   Clear
12:35 PM 59.0 °F - 35.6 °F 42% 30.18 in 10.0 mi NNE 10.4 mph - N/A   Clear
12:55 PM 59.0 °F - 33.8 °F 39% 30.18 in 10.0 mi North 10.4 mph 17.3 mph N/A   Clear
1:15 PM 60.8 °F - 33.8 °F 36% 30.18 in 10.0 mi North 9.2 mph 16.1 mph N/A   Clear
1:35 PM 60.8 °F - 32.0 °F 34% 30.17 in 10.0 mi NNW 8.1 mph 17.3 mph N/A   Clear
1:55 PM 60.8 °F - 32.0 °F 34% 30.17 in 10.0 mi NNE 11.5 mph 19.6 mph N/A   Clear
2:15 PM 62.6 °F - 32.0 °F 32% 30.16 in 10.0 mi North 11.5 mph 20.7 mph N/A   Clear
2:35 PM 62.6 °F - 32.0 °F 32% 30.15 in 10.0 mi North 10.4 mph - N/A   Clear
3:15 PM 64.4 °F - 32.0 °F 30% 30.14 in 10.0 mi NNE 6.9 mph - N/A   Clear
3:55 PM 64.4 °F - 32.0 °F 30% 30.12 in 10.0 mi NNW 11.5 mph 19.6 mph N/A   Clear
4:15 PM 64.4 °F - 32.0 °F 30% 30.11 in 10.0 mi NE 8.1 mph 17.3 mph N/A   Clear
4:35 PM 64.4 °F - 30.2 °F 28% 30.11 in 10.0 mi NNE 10.4 mph 17.3 mph N/A   Clear
4:55 PM 64.4 °F - 30.2 °F 28% 30.11 in 10.0 mi NNW 9.2 mph - N/A   Clear
5:15 PM 66.2 °F - 32.0 °F 28% 30.10 in 10.0 mi NNW 11.5 mph - N/A   Clear
5:35 PM 66.2 °F - 30.2 °F 26% 30.09 in 10.0 mi North 8.1 mph - N/A   Clear
5:55 PM 66.2 °F - 30.2 °F 26% 30.09 in 10.0 mi NNW 3.5 mph - N/A   Clear
6:15 PM 64.4 °F - 28.4 °F 26% 30.09 in 10.0 mi North 6.9 mph - N/A   Clear
6:35 PM 64.4 °F - 30.2 °F 28% 30.09 in 10.0 mi NNE 9.2 mph - N/A   Clear
6:55 PM 64.4 °F - 30.2 °F 28% 30.09 in 10.0 mi NNE 8.1 mph - N/A   Clear
7:15 PM 62.6 °F - 32.0 °F 32% 30.09 in 10.0 mi NE 8.1 mph - N/A   Clear
7:35 PM 60.8 °F - 32.0 °F 34% 30.09 in 10.0 mi NE 6.9 mph - N/A   Clear
7:55 PM 59.0 °F - 30.2 °F 34% 30.10 in 10.0 mi NNE 5.8 mph - N/A   Clear
8:15 PM 55.4 °F - 30.2 °F 38% 30.10 in 10.0 mi NE 5.8 mph - N/A   Clear
8:35 PM 53.6 °F - 32.0 °F 44% 30.11 in 10.0 mi NE 5.8 mph - N/A   Clear
8:55 PM 53.6 °F - 32.0 °F 44% 30.12 in 10.0 mi NE 3.5 mph - N/A   Clear
9:15 PM 53.6 °F - 32.0 °F 44% 30.12 in 10.0 mi NE 3.5 mph - N/A   Clear
9:35 PM 51.8 °F - 32.0 °F 47% 30.12 in 10.0 mi NE 4.6 mph - N/A   Clear
9:55 PM 51.8 °F - 30.2 °F 44% 30.12 in 10.0 mi Calm Calm - N/A   Clear
10:15 PM 53.6 °F - 28.4 °F 38% 30.13 in 10.0 mi NNE 4.6 mph - N/A   Clear
10:35 PM 51.8 °F - 30.2 °F 44% 30.14 in 10.0 mi WNW 3.5 mph - N/A   Clear
10:55 PM 51.8 °F - 28.4 °F 41% 30.14 in 10.0 mi Calm Calm - N/A   Clear
11:15 PM 51.8 °F - 30.2 °F 44% 30.14 in 10.0 mi North 4.6 mph - N/A   Clear
11:35 PM 51.8 °F - 32.0 °F 47% 30.14 in 10.0 mi North 5.8 mph - N/A   Clear
11:55 PM 50.0 °F - 33.8 °F 54% 30.14 in 10.0 mi NNE 6.9 mph - N/A   Clear